sensor_id;sensor_type;location;lat;lon;timestamp;pressure;altitude;pressure_sealevel;temperature;humidity
15678;BME280;7939;50.814;6.368;2022-09-27T00:00:35;98021.50;;;16.42;60.56
15678;BME280;7939;50.814;6.368;2022-09-27T00:03:02;98024.81;;;16.44;60.74
15678;BME280;7939;50.814;6.368;2022-09-27T00:05:30;98027.41;;;16.44;60.36
15678;BME280;7939;50.814;6.368;2022-09-27T00:07:57;98023.25;;;16.42;60.63
15678;BME280;7939;50.814;6.368;2022-09-27T00:10:23;98035.22;;;16.43;60.40
15678;BME280;7939;50.814;6.368;2022-09-27T00:12:50;98033.47;;;16.43;60.22
15678;BME280;7939;50.814;6.368;2022-09-27T00:15:17;98032.72;;;16.41;60.34
15678;BME280;7939;50.814;6.368;2022-09-27T00:17:44;98034.53;;;16.39;60.07
15678;BME280;7939;50.814;6.368;2022-09-27T00:20:11;98045.78;;;16.38;60.42
15678;BME280;7939;50.814;6.368;2022-09-27T00:22:39;98044.09;;;16.37;60.35
15678;BME280;7939;50.814;6.368;2022-09-27T00:25:06;98037.19;;;16.38;60.54
15678;BME280;7939;50.814;6.368;2022-09-27T00:27:33;98040.69;;;16.37;60.68
15678;BME280;7939;50.814;6.368;2022-09-27T00:29:59;98044.94;;;16.38;60.52
15678;BME280;7939;50.814;6.368;2022-09-27T00:32:26;98048.44;;;16.37;60.67
15678;BME280;7939;50.814;6.368;2022-09-27T00:34:53;98045.84;;;16.37;60.62
15678;BME280;7939;50.814;6.368;2022-09-27T00:37:20;98048.56;;;16.34;60.19
15678;BME280;7939;50.814;6.368;2022-09-27T00:39:48;98041.69;;;16.34;60.22
15678;BME280;7939;50.814;6.368;2022-09-27T00:42:15;98040.09;;;16.32;60.25
15678;BME280;7939;50.814;6.368;2022-09-27T00:45:08;98041.75;;;16.33;60.42
15678;BME280;7939;50.814;6.368;2022-09-27T00:47:46;98044.41;;;16.31;60.35
15678;BME280;7939;50.814;6.368;2022-09-27T00:50:23;98053.91;;;16.31;60.38
15678;BME280;7939;50.814;6.368;2022-09-27T00:53:00;98052.97;;;16.32;60.63
15678;BME280;7939;50.814;6.368;2022-09-27T00:55:34;98053.81;;;16.32;60.40
15678;BME280;7939;50.814;6.368;2022-09-27T00:58:02;98051.25;;;16.32;60.53
15678;BME280;7939;50.814;6.368;2022-09-27T01:00:30;98049.56;;;16.31;60.33
15678;BME280;7939;50.814;6.368;2022-09-27T01:02:57;98055.56;;;16.32;60.13
15678;BME280;7939;50.814;6.368;2022-09-27T01:05:27;98058.88;;;16.34;60.64
15678;BME280;7939;50.814;6.368;2022-09-27T01:07:54;98051.25;;;16.32;60.20
15678;BME280;7939;50.814;6.368;2022-09-27T01:10:26;98053.91;;;16.31;60.25
15678;BME280;7939;50.814;6.368;2022-09-27T01:13:02;98058.22;;;16.30;60.30
15678;BME280;7939;50.814;6.368;2022-09-27T01:15:37;98060.81;;;16.30;60.49
15678;BME280;7939;50.814;6.368;2022-09-27T01:18:16;98064.34;;;16.28;60.13
15678;BME280;7939;50.814;6.368;2022-09-27T01:21:08;98066.94;;;16.28;60.35
15678;BME280;7939;50.814;6.368;2022-09-27T01:29:27;98061.84;;;16.26;60.07
15678;BME280;7939;50.814;6.368;2022-09-27T01:32:02;98075.75;;;16.24;60.52
15678;BME280;7939;50.814;6.368;2022-09-27T01:34:35;98062.84;;;16.24;60.65
15678;BME280;7939;50.814;6.368;2022-09-27T01:37:09;98075.06;;;16.20;60.32
15678;BME280;7939;50.814;6.368;2022-09-27T01:39:47;98067.25;;;16.22;60.57
15678;BME280;7939;50.814;6.368;2022-09-27T01:42:21;98071.50;;;16.23;60.32
15678;BME280;7939;50.814;6.368;2022-09-27T01:44:53;98068.97;;;16.21;60.42
15678;BME280;7939;50.814;6.368;2022-09-27T01:47:30;98076.88;;;16.18;60.29
15678;BME280;7939;50.814;6.368;2022-09-27T01:50:01;98074.31;;;16.18;60.24
15678;BME280;7939;50.814;6.368;2022-09-27T01:52:33;98077.88;;;16.15;60.22
15678;BME280;7939;50.814;6.368;2022-09-27T01:55:04;98066.88;;;16.12;60.49
15678;BME280;7939;50.814;6.368;2022-09-27T01:57:35;98082.19;;;16.15;60.63
15678;BME280;7939;50.814;6.368;2022-09-27T02:00:05;98083.66;;;16.03;60.35
15678;BME280;7939;50.814;6.368;2022-09-27T02:02:36;98079.97;;;16.07;60.55
15678;BME280;7939;50.814;6.368;2022-09-27T02:05:06;98085.84;;;16.11;60.50
15678;BME280;7939;50.814;6.368;2022-09-27T02:07:39;98078.09;;;16.11;60.61
15678;BME280;7939;50.814;6.368;2022-09-27T02:10:10;98084.00;;;16.13;60.66
15678;BME280;7939;50.814;6.368;2022-09-27T02:12:55;98080.69;;;16.11;60.37
15678;BME280;7939;50.814;6.368;2022-09-27T02:15:25;98104.72;;;16.11;60.46
15678;BME280;7939;50.814;6.368;2022-09-27T02:17:57;98093.03;;;16.04;60.63
15678;BME280;7939;50.814;6.368;2022-09-27T02:20:29;98100.47;;;16.10;60.27
15678;BME280;7939;50.814;6.368;2022-09-27T02:23:05;98099.03;;;16.05;60.60
15678;BME280;7939;50.814;6.368;2022-09-27T02:25:40;98100.53;;;16.09;60.51
15678;BME280;7939;50.814;6.368;2022-09-27T02:28:16;98095.44;;;16.07;60.48
15678;BME280;7939;50.814;6.368;2022-09-27T02:30:47;98102.22;;;16.10;60.46
15678;BME280;7939;50.814;6.368;2022-09-27T02:33:17;98094.63;;;16.07;60.76
15678;BME280;7939;50.814;6.368;2022-09-27T02:35:45;98098.84;;;16.08;60.40
15678;BME280;7939;50.814;6.368;2022-09-27T02:38:12;98092.97;;;16.06;60.22
15678;BME280;7939;50.814;6.368;2022-09-27T02:40:42;98092.97;;;16.06;60.26
15678;BME280;7939;50.814;6.368;2022-09-27T02:43:10;98100.78;;;16.04;60.31
15678;BME280;7939;50.814;6.368;2022-09-27T02:45:48;98097.34;;;16.04;60.02
15678;BME280;7939;50.814;6.368;2022-09-27T02:48:26;98101.69;;;16.03;60.28
15678;BME280;7939;50.814;6.368;2022-09-27T02:51:21;98107.72;;;16.02;60.13
15678;BME280;7939;50.814;6.368;2022-09-27T02:54:02;98112.00;;;16.03;60.16
15678;BME280;7939;50.814;6.368;2022-09-27T02:56:37;98113.69;;;16.03;60.04
15678;BME280;7939;50.814;6.368;2022-09-27T02:59:12;98115.53;;;16.01;60.05
15678;BME280;7939;50.814;6.368;2022-09-27T03:01:48;98116.66;;;15.95;60.00
15678;BME280;7939;50.814;6.368;2022-09-27T03:04:22;98119.19;;;15.97;59.56
15678;BME280;7939;50.814;6.368;2022-09-27T03:06:54;98124.69;;;15.89;60.34
15678;BME280;7939;50.814;6.368;2022-09-27T03:09:23;98120.22;;;15.93;60.25
15678;BME280;7939;50.814;6.368;2022-09-27T03:11:50;98125.50;;;15.89;60.04
15678;BME280;7939;50.814;6.368;2022-09-27T03:14:17;98125.38;;;15.93;60.25
15678;BME280;7939;50.814;6.368;2022-09-27T03:16:44;98123.84;;;15.88;60.16
15678;BME280;7939;50.814;6.368;2022-09-27T03:19:11;98128.91;;;15.90;60.33
15678;BME280;7939;50.814;6.368;2022-09-27T03:21:39;98132.28;;;15.92;60.17
15678;BME280;7939;50.814;6.368;2022-09-27T03:24:05;98127.22;;;15.90;60.09
15678;BME280;7939;50.814;6.368;2022-09-27T03:26:32;98134.03;;;15.91;60.02
15678;BME280;7939;50.814;6.368;2022-09-27T03:28:59;98134.97;;;15.89;60.38
15678;BME280;7939;50.814;6.368;2022-09-27T03:31:25;98137.50;;;15.90;60.46
15678;BME280;7939;50.814;6.368;2022-09-27T03:33:52;98138.00;;;15.80;60.01
15678;BME280;7939;50.814;6.368;2022-09-27T03:36:19;98144.66;;;15.84;60.22
15678;BME280;7939;50.814;6.368;2022-09-27T03:38:47;98134.59;;;15.79;59.59
15678;BME280;7939;50.814;6.368;2022-09-27T03:41:13;98141.25;;;15.83;60.39
15678;BME280;7939;50.814;6.368;2022-09-27T03:43:40;98149.81;;;15.84;60.16
15678;BME280;7939;50.814;6.368;2022-09-27T03:46:07;98153.19;;;15.86;59.86
15678;BME280;7939;50.814;6.368;2022-09-27T03:48:33;98153.19;;;15.86;60.09
15678;BME280;7939;50.814;6.368;2022-09-27T03:51:00;98152.63;;;15.79;59.78
15678;BME280;7939;50.814;6.368;2022-09-27T03:53:28;98154.44;;;15.77;59.81
15678;BME280;7939;50.814;6.368;2022-09-27T03:55:56;98156.47;;;15.71;59.73
15678;BME280;7939;50.814;6.368;2022-09-27T03:58:23;98153.59;;;15.77;60.14
15678;BME280;7939;50.814;6.368;2022-09-27T04:00:50;98148.53;;;15.75;59.97
15678;BME280;7939;50.814;6.368;2022-09-27T04:03:17;98150.91;;;15.80;60.05
15678;BME280;7939;50.814;6.368;2022-09-27T04:05:43;98151.19;;;15.74;60.39
15678;BME280;7939;50.814;6.368;2022-09-27T04:08:11;98143.53;;;15.72;59.95
15678;BME280;7939;50.814;6.368;2022-09-27T04:10:38;98139.22;;;15.73;60.05
15678;BME280;7939;50.814;6.368;2022-09-27T04:13:06;98151.19;;;15.74;59.87
15678;BME280;7939;50.814;6.368;2022-09-27T04:15:33;98151.09;;;15.75;60.05
15678;BME280;7939;50.814;6.368;2022-09-27T04:18:00;98148.59;;;15.74;60.10
15678;BME280;7939;50.814;6.368;2022-09-27T04:20:26;98144.91;;;15.60;59.64
15678;BME280;7939;50.814;6.368;2022-09-27T04:22:53;98136.84;;;15.68;59.67
15678;BME280;7939;50.814;6.368;2022-09-27T04:25:20;98129.03;;;15.70;59.53
15678;BME280;7939;50.814;6.368;2022-09-27T04:27:46;98127.31;;;15.70;59.63
15678;BME280;7939;50.814;6.368;2022-09-27T04:30:14;98134.34;;;15.67;59.64
15678;BME280;7939;50.814;6.368;2022-09-27T04:32:42;98136.63;;;15.73;59.72
15678;BME280;7939;50.814;6.368;2022-09-27T04:35:09;98129.47;;;15.60;59.49
15678;BME280;7939;50.814;6.368;2022-09-27T04:37:53;98132.03;;;15.60;59.65
15678;BME280;7939;50.814;6.368;2022-09-27T04:40:20;98131.06;;;15.63;59.45
15678;BME280;7939;50.814;6.368;2022-09-27T04:42:47;98132.69;;;15.66;59.53
15678;BME280;7939;50.814;6.368;2022-09-27T04:45:16;98136.94;;;15.67;59.37
15678;BME280;7939;50.814;6.368;2022-09-27T04:47:43;98142.00;;;15.68;59.53
15678;BME280;7939;50.814;6.368;2022-09-27T04:50:09;98148.06;;;15.67;59.12
15678;BME280;7939;50.814;6.368;2022-09-27T04:52:36;98143.75;;;15.68;59.44
15678;BME280;7939;50.814;6.368;2022-09-27T04:55:03;98149.94;;;15.63;59.47
15678;BME280;7939;50.814;6.368;2022-09-27T04:57:30;98153.34;;;15.64;59.34
15678;BME280;7939;50.814;6.368;2022-09-27T04:59:56;98148.13;;;15.66;59.60
15678;BME280;7939;50.814;6.368;2022-09-27T05:02:26;98155.03;;;15.65;59.58
15678;BME280;7939;50.814;6.368;2022-09-27T05:04:52;98155.88;;;15.66;59.59
15678;BME280;7939;50.814;6.368;2022-09-27T05:07:20;98160.31;;;15.62;59.53
15678;BME280;7939;50.814;6.368;2022-09-27T05:09:47;98168.91;;;15.61;59.66
15678;BME280;7939;50.814;6.368;2022-09-27T05:12:14;98168.88;;;15.62;59.54
15678;BME280;7939;50.814;6.368;2022-09-27T05:14:41;98169.75;;;15.61;59.24
15678;BME280;7939;50.814;6.368;2022-09-27T05:17:07;98178.38;;;15.60;59.62
15678;BME280;7939;50.814;6.368;2022-09-27T05:19:35;98188.75;;;15.59;59.47
15678;BME280;7939;50.814;6.368;2022-09-27T05:22:03;98181.09;;;15.57;59.38
15678;BME280;7939;50.814;6.368;2022-09-27T05:24:31;98192.16;;;15.59;59.57
15678;BME280;7939;50.814;6.368;2022-09-27T05:26:58;98193.91;;;15.59;59.48
15678;BME280;7939;50.814;6.368;2022-09-27T05:29:25;98181.03;;;15.59;59.37
15678;BME280;7939;50.814;6.368;2022-09-27T05:31:52;98191.34;;;15.59;59.40
15678;BME280;7939;50.814;6.368;2022-09-27T05:34:19;98181.03;;;15.59;59.31
15678;BME280;7939;50.814;6.368;2022-09-27T05:36:48;98187.97;;;15.57;59.36
15678;BME280;7939;50.814;6.368;2022-09-27T05:39:15;98187.22;;;15.55;59.58
15678;BME280;7939;50.814;6.368;2022-09-27T05:41:42;98195.03;;;15.53;59.59
15678;BME280;7939;50.814;6.368;2022-09-27T05:44:08;98190.75;;;15.52;59.50
15678;BME280;7939;50.814;6.368;2022-09-27T05:46:35;98200.09;;;15.55;59.47
15678;BME280;7939;50.814;6.368;2022-09-27T05:49:03;98197.59;;;15.53;59.76
15678;BME280;7939;50.814;6.368;2022-09-27T05:51:30;98206.91;;;15.56;59.41
15678;BME280;7939;50.814;6.368;2022-09-27T05:53:59;98205.09;;;15.58;59.68
15678;BME280;7939;50.814;6.368;2022-09-27T05:56:26;98205.16;;;15.56;59.43
15678;BME280;7939;50.814;6.368;2022-09-27T05:58:53;98212.81;;;15.58;59.30
15678;BME280;7939;50.814;6.368;2022-09-27T06:01:19;98220.53;;;15.58;59.46
15678;BME280;7939;50.814;6.368;2022-09-27T06:03:46;98215.34;;;15.59;59.65
15678;BME280;7939;50.814;6.368;2022-09-27T06:06:14;98212.88;;;15.56;59.33
15678;BME280;7939;50.814;6.368;2022-09-27T06:08:41;98215.38;;;15.58;59.42
15678;BME280;7939;50.814;6.368;2022-09-27T06:11:11;98209.41;;;15.57;59.47
15678;BME280;7939;50.814;6.368;2022-09-27T06:13:38;98215.38;;;15.58;59.63
15678;BME280;7939;50.814;6.368;2022-09-27T06:16:06;98211.06;;;15.58;59.24
15678;BME280;7939;50.814;6.368;2022-09-27T06:18:32;98212.75;;;15.59;59.34
15678;BME280;7939;50.814;6.368;2022-09-27T06:21:00;98206.78;;;15.59;59.20
15678;BME280;7939;50.814;6.368;2022-09-27T06:23:27;98207.63;;;15.59;59.19
15678;BME280;7939;50.814;6.368;2022-09-27T06:26:00;98210.22;;;15.58;59.41
15678;BME280;7939;50.814;6.368;2022-09-27T06:28:29;98204.25;;;15.57;59.05
15678;BME280;7939;50.814;6.368;2022-09-27T06:30:56;98216.22;;;15.58;59.33
15678;BME280;7939;50.814;6.368;2022-09-27T06:33:25;98223.94;;;15.58;59.27
15678;BME280;7939;50.814;6.368;2022-09-27T06:35:52;98226.53;;;15.58;59.56
15678;BME280;7939;50.814;6.368;2022-09-27T06:38:19;98228.25;;;15.58;59.62
15678;BME280;7939;50.814;6.368;2022-09-27T06:40:46;98236.78;;;15.60;59.60
15678;BME280;7939;50.814;6.368;2022-09-27T06:43:14;98229.97;;;15.59;59.43
15678;BME280;7939;50.814;6.368;2022-09-27T06:45:42;98230.91;;;15.56;59.17
15678;BME280;7939;50.814;6.368;2022-09-27T06:48:10;98237.97;;;15.53;59.25
15678;BME280;7939;50.814;6.368;2022-09-27T06:50:39;98245.72;;;15.51;59.75
15678;BME280;7939;50.814;6.368;2022-09-27T06:53:07;98244.78;;;15.54;59.48
15678;BME280;7939;50.814;6.368;2022-09-27T06:55:34;98253.25;;;15.56;59.26
15678;BME280;7939;50.814;6.368;2022-09-27T06:58:01;98246.44;;;15.55;59.30
15678;BME280;7939;50.814;6.368;2022-09-27T07:00:49;98255.13;;;15.52;59.10
15678;BME280;7939;50.814;6.368;2022-09-27T07:03:16;98252.63;;;15.51;59.72
15678;BME280;7939;50.814;6.368;2022-09-27T07:05:53;98254.28;;;15.52;59.90
15678;BME280;7939;50.814;6.368;2022-09-27T07:08:20;98250.19;;;15.48;59.87
15678;BME280;7939;50.814;6.368;2022-09-27T07:10:46;98249.28;;;15.49;59.75
15678;BME280;7939;50.814;6.368;2022-09-27T07:13:14;98256.03;;;15.51;59.58
15678;BME280;7939;50.814;6.368;2022-09-27T07:15:41;98260.22;;;15.54;59.42
15678;BME280;7939;50.814;6.368;2022-09-27T07:18:09;98260.22;;;15.54;59.76
15678;BME280;7939;50.814;6.368;2022-09-27T07:20:35;98262.72;;;15.55;59.58
15678;BME280;7939;50.814;6.368;2022-09-27T07:23:03;98254.91;;;15.57;59.68
15678;BME280;7939;50.814;6.368;2022-09-27T07:25:30;98263.47;;;15.57;59.61
15678;BME280;7939;50.814;6.368;2022-09-27T07:28:00;98261.81;;;15.56;59.29
15678;BME280;7939;50.814;6.368;2022-09-27T07:30:28;98255.75;;;15.57;59.65
15678;BME280;7939;50.814;6.368;2022-09-27T07:32:56;98251.44;;;15.58;59.77
15678;BME280;7939;50.814;6.368;2022-09-27T07:35:26;98255.72;;;15.59;59.61
15678;BME280;7939;50.814;6.368;2022-09-27T07:37:54;98253.13;;;15.59;59.87
15678;BME280;7939;50.814;6.368;2022-09-27T07:40:21;98258.28;;;15.59;59.19
15678;BME280;7939;50.814;6.368;2022-09-27T07:42:53;98263.34;;;15.60;59.62
15678;BME280;7939;50.814;6.368;2022-09-27T07:45:19;98260.78;;;15.60;59.22
15678;BME280;7939;50.814;6.368;2022-09-27T07:47:46;98262.53;;;15.60;59.41
15678;BME280;7939;50.814;6.368;2022-09-27T07:50:13;98257.41;;;15.58;59.47
15678;BME280;7939;50.814;6.368;2022-09-27T07:52:43;98258.28;;;15.59;59.17
15678;BME280;7939;50.814;6.368;2022-09-27T07:55:12;98254.00;;;15.58;59.47
15678;BME280;7939;50.814;6.368;2022-09-27T07:57:39;98267.03;;;15.55;59.77
15678;BME280;7939;50.814;6.368;2022-09-27T08:00:08;98263.97;;;15.47;58.82
15678;BME280;7939;50.814;6.368;2022-09-27T08:02:35;98267.03;;;15.55;59.94
15678;BME280;7939;50.814;6.368;2022-09-27T08:05:03;98267.78;;;15.57;59.52
15678;BME280;7939;50.814;6.368;2022-09-27T08:07:29;98276.31;;;15.59;59.44
15678;BME280;7939;50.814;6.368;2022-09-27T08:09:58;98273.66;;;15.60;59.59
15678;BME280;7939;50.814;6.368;2022-09-27T08:12:25;98276.19;;;15.62;59.97
15678;BME280;7939;50.814;6.368;2022-09-27T08:14:52;98288.19;;;15.61;59.73
15678;BME280;7939;50.814;6.368;2022-09-27T08:17:19;98281.34;;;15.62;59.47
15678;BME280;7939;50.814;6.368;2022-09-27T08:19:45;98285.63;;;15.61;59.68
15678;BME280;7939;50.814;6.368;2022-09-27T08:22:14;98277.84;;;15.63;59.56
15678;BME280;7939;50.814;6.368;2022-09-27T08:24:41;98286.41;;;15.63;59.42
15678;BME280;7939;50.814;6.368;2022-09-27T08:27:09;98287.25;;;15.64;59.38
15678;BME280;7939;50.814;6.368;2022-09-27T08:29:36;98286.28;;;15.67;59.73
15678;BME280;7939;50.814;6.368;2022-09-27T08:32:06;98284.56;;;15.67;59.58
15678;BME280;7939;50.814;6.368;2022-09-27T08:34:33;98282.81;;;15.68;59.71
15678;BME280;7939;50.814;6.368;2022-09-27T08:36:59;98274.09;;;15.70;59.68
15678;BME280;7939;50.814;6.368;2022-09-27T08:39:26;98285.22;;;15.71;59.41
15678;BME280;7939;50.814;6.368;2022-09-27T08:41:56;98287.75;;;15.72;59.55
15678;BME280;7939;50.814;6.368;2022-09-27T08:44:35;98286.06;;;15.71;59.48
15678;BME280;7939;50.814;6.368;2022-09-27T08:47:11;98289.44;;;15.73;59.81
15678;BME280;7939;50.814;6.368;2022-09-27T08:49:42;98291.91;;;15.75;59.17
15678;BME280;7939;50.814;6.368;2022-09-27T08:52:15;98289.34;;;15.75;59.31
15678;BME280;7939;50.814;6.368;2022-09-27T08:54:44;98292.06;;;15.72;59.40
15678;BME280;7939;50.814;6.368;2022-09-27T08:57:12;98296.25;;;15.74;59.53
15678;BME280;7939;50.814;6.368;2022-09-27T08:59:44;98294.38;;;15.78;59.71
15678;BME280;7939;50.814;6.368;2022-09-27T09:02:17;98292.63;;;15.78;59.11
15678;BME280;7939;50.814;6.368;2022-09-27T09:04:45;98290.06;;;15.78;59.49
15678;BME280;7939;50.814;6.368;2022-09-27T09:07:22;98292.41;;;15.83;59.33
15678;BME280;7939;50.814;6.368;2022-09-27T09:09:57;98293.66;;;15.74;59.04
15678;BME280;7939;50.814;6.368;2022-09-27T09:12:36;98289.06;;;15.81;59.17
15678;BME280;7939;50.814;6.368;2022-09-27T09:15:24;98285.47;;;15.85;59.12
15678;BME280;7939;50.814;6.368;2022-09-27T09:18:19;98293.94;;;15.87;59.11
15678;BME280;7939;50.814;6.368;2022-09-27T09:20:54;98285.19;;;15.91;58.85
15678;BME280;7939;50.814;6.368;2022-09-27T09:23:47;98289.28;;;15.95;59.18
15678;BME280;7939;50.814;6.368;2022-09-27T09:26:27;98278.00;;;15.98;59.02
15678;BME280;7939;50.814;6.368;2022-09-27T09:29:09;98281.34;;;16.00;59.04
15678;BME280;7939;50.814;6.368;2022-09-27T09:31:43;98287.13;;;16.05;58.91
15678;BME280;7939;50.814;6.368;2022-09-27T09:34:17;98286.13;;;16.07;58.60
15678;BME280;7939;50.814;6.368;2022-09-27T09:36:50;98286.06;;;16.09;58.48
15678;BME280;7939;50.814;6.368;2022-09-27T09:39:22;98284.34;;;16.09;58.57
15678;BME280;7939;50.814;6.368;2022-09-27T09:42:01;98291.09;;;16.12;58.40
15678;BME280;7939;50.814;6.368;2022-09-27T09:44:40;98286.91;;;16.09;57.97
15678;BME280;7939;50.814;6.368;2022-09-27T09:47:14;98271.31;;;16.12;57.92
15678;BME280;7939;50.814;6.368;2022-09-27T09:49:48;98276.31;;;16.15;58.26
15678;BME280;7939;50.814;6.368;2022-09-27T09:52:20;98276.31;;;16.15;58.20
15678;BME280;7939;50.814;6.368;2022-09-27T09:54:50;98277.84;;;16.19;58.27
15678;BME280;7939;50.814;6.368;2022-09-27T09:57:22;98281.25;;;16.20;58.05
15678;BME280;7939;50.814;6.368;2022-09-27T09:59:54;98279.44;;;16.22;58.05
15678;BME280;7939;50.814;6.368;2022-09-27T10:02:31;98276.88;;;16.22;57.99
15678;BME280;7939;50.814;6.368;2022-09-27T10:04:59;98279.38;;;16.24;58.31
15678;BME280;7939;50.814;6.368;2022-09-27T10:07:27;98296.41;;;16.26;58.46
15678;BME280;7939;50.814;6.368;2022-09-27T10:09:57;98283.69;;;16.23;57.90
15678;BME280;7939;50.814;6.368;2022-09-27T10:12:25;98280.19;;;16.24;58.44
15678;BME280;7939;50.814;6.368;2022-09-27T10:14:53;98280.19;;;16.24;58.61
15678;BME280;7939;50.814;6.368;2022-09-27T10:17:24;98288.84;;;16.23;58.26
15678;BME280;7939;50.814;6.368;2022-09-27T10:19:55;98280.19;;;16.24;58.41
15678;BME280;7939;50.814;6.368;2022-09-27T10:22:27;98283.69;;;16.23;58.59
15678;BME280;7939;50.814;6.368;2022-09-27T10:24:56;98275.19;;;16.21;58.52
15678;BME280;7939;50.814;6.368;2022-09-27T10:27:24;98274.28;;;16.22;58.49
15678;BME280;7939;50.814;6.368;2022-09-27T10:29:56;98279.38;;;16.24;58.79
15678;BME280;7939;50.814;6.368;2022-09-27T10:32:25;98281.03;;;16.25;58.24
15678;BME280;7939;50.814;6.368;2022-09-27T10:35:20;98280.13;;;16.26;58.36
15678;BME280;7939;50.814;6.368;2022-09-27T10:37:47;98284.44;;;16.25;58.11
15678;BME280;7939;50.814;6.368;2022-09-27T10:40:28;98283.53;;;16.26;58.59
15678;BME280;7939;50.814;6.368;2022-09-27T10:42:54;98276.63;;;16.27;58.16
15678;BME280;7939;50.814;6.368;2022-09-27T10:45:27;98275.81;;;16.26;58.16
15678;BME280;7939;50.814;6.368;2022-09-27T10:47:54;98270.66;;;16.26;58.16
15678;BME280;7939;50.814;6.368;2022-09-27T10:50:25;98266.41;;;16.25;58.00
15678;BME280;7939;50.814;6.368;2022-09-27T10:53:03;98259.41;;;16.27;58.10
15678;BME280;7939;50.814;6.368;2022-09-27T10:55:33;98265.28;;;16.31;58.28
15678;BME280;7939;50.814;6.368;2022-09-27T10:58:00;98262.63;;;16.32;58.47
15678;BME280;7939;50.814;6.368;2022-09-27T11:00:30;98255.81;;;16.31;58.18
15678;BME280;7939;50.814;6.368;2022-09-27T11:02:59;98263.41;;;16.34;58.42
15678;BME280;7939;50.814;6.368;2022-09-27T11:05:34;98254.75;;;16.35;58.15
15678;BME280;7939;50.814;6.368;2022-09-27T11:08:18;98247.84;;;16.36;58.21
15678;BME280;7939;50.814;6.368;2022-09-27T11:11:00;98250.34;;;16.37;58.46
15678;BME280;7939;50.814;6.368;2022-09-27T11:13:28;98254.69;;;16.37;58.26
15678;BME280;7939;50.814;6.368;2022-09-27T11:16:12;98248.91;;;16.32;58.15
15678;BME280;7939;50.814;6.368;2022-09-27T11:18:48;98258.25;;;16.34;58.21
15678;BME280;7939;50.814;6.368;2022-09-27T11:21:24;98254.75;;;16.35;58.09
15678;BME280;7939;50.814;6.368;2022-09-27T11:24:07;98252.22;;;16.34;58.23
15678;BME280;7939;50.814;6.368;2022-09-27T11:26:45;98261.03;;;16.30;57.57
15678;BME280;7939;50.814;6.368;2022-09-27T11:29:30;98249.06;;;16.29;57.82
15678;BME280;7939;50.814;6.368;2022-09-27T11:32:13;98245.69;;;16.27;57.84
15678;BME280;7939;50.814;6.368;2022-09-27T11:34:53;98262.84;;;16.28;57.82
15678;BME280;7939;50.814;6.368;2022-09-27T11:37:29;98260.25;;;16.28;57.92
15678;BME280;7939;50.814;6.368;2022-09-27T11:40:04;98265.38;;;16.29;58.25
15678;BME280;7939;50.814;6.368;2022-09-27T11:42:58;98259.41;;;16.27;57.81
15678;BME280;7939;50.814;6.368;2022-09-27T11:45:38;98257.00;;;16.24;57.54
15678;BME280;7939;50.814;6.368;2022-09-27T11:48:20;98258.75;;;16.24;57.81
15678;BME280;7939;50.814;6.368;2022-09-27T11:51:00;98250.31;;;16.20;57.54
15678;BME280;7939;50.814;6.368;2022-09-27T11:53:42;98246.78;;;16.23;57.99
15678;BME280;7939;50.814;6.368;2022-09-27T11:56:20;98246.69;;;16.24;57.91
15678;BME280;7939;50.814;6.368;2022-09-27T11:58:58;98246.81;;;16.21;57.61
15678;BME280;7939;50.814;6.368;2022-09-27T12:01:36;98240.72;;;16.24;58.15
15678;BME280;7939;50.814;6.368;2022-09-27T12:06:58;98246.63;;;16.26;57.81
15678;BME280;7939;50.814;6.368;2022-09-27T12:09:33;98247.00;;;16.18;57.04
15678;BME280;7939;50.814;6.368;2022-09-27T12:12:03;98247.59;;;16.23;57.67
15678;BME280;7939;50.814;6.368;2022-09-27T12:14:39;98241.53;;;16.24;57.43
15678;BME280;7939;50.814;6.368;2022-09-27T12:17:11;98240.63;;;16.25;57.62
15678;BME280;7939;50.814;6.368;2022-09-27T12:19:43;98242.38;;;16.25;57.29
15678;BME280;7939;50.814;6.368;2022-09-27T12:22:14;98239.63;;;16.28;57.67
15678;BME280;7939;50.814;6.368;2022-09-27T12:24:44;98234.63;;;16.25;56.47
15678;BME280;7939;50.814;6.368;2022-09-27T12:27:14;98242.28;;;16.26;56.83
15678;BME280;7939;50.814;6.368;2022-09-27T12:29:45;98245.94;;;16.22;56.97
15678;BME280;7939;50.814;6.368;2022-09-27T12:32:18;98250.22;;;16.22;57.11
15678;BME280;7939;50.814;6.368;2022-09-27T12:34:50;98252.53;;;16.28;57.26
15678;BME280;7939;50.814;6.368;2022-09-27T12:37:23;98246.69;;;16.24;56.44
15678;BME280;7939;50.814;6.368;2022-09-27T12:39:57;98252.75;;;16.23;57.27
15678;BME280;7939;50.814;6.368;2022-09-27T12:42:29;98248.34;;;16.25;56.89
15678;BME280;7939;50.814;6.368;2022-09-27T12:44:57;98248.03;;;16.14;56.25
15678;BME280;7939;50.814;6.368;2022-09-27T12:47:42;98256.47;;;16.17;55.93
15678;BME280;7939;50.814;6.368;2022-09-27T12:50:22;98255.38;;;16.22;56.86
15678;BME280;7939;50.814;6.368;2022-09-27T12:52:57;98271.72;;;16.22;57.21
15678;BME280;7939;50.814;6.368;2022-09-27T12:55:46;98262.19;;;16.05;54.95
15678;BME280;7939;50.814;6.368;2022-09-27T12:58:40;98271.31;;;16.12;56.29
15678;BME280;7939;50.814;6.368;2022-09-27T13:01:19;98275.47;;;16.15;56.91
15678;BME280;7939;50.814;6.368;2022-09-27T13:04:02;98277.09;;;16.17;56.75
15678;BME280;7939;50.814;6.368;2022-09-27T13:06:51;98275.34;;;16.18;56.01
15678;BME280;7939;50.814;6.368;2022-09-27T13:09:35;98270.19;;;16.18;56.37
15678;BME280;7939;50.814;6.368;2022-09-27T13:12:10;98262.44;;;16.18;56.15
15678;BME280;7939;50.814;6.368;2022-09-27T13:14:42;98267.53;;;16.19;56.01
15678;BME280;7939;50.814;6.368;2022-09-27T13:17:32;98265.78;;;16.20;55.27
15678;BME280;7939;50.814;6.368;2022-09-27T13:26:45;98262.25;;;16.23;56.06
15678;BME280;7939;50.814;6.368;2022-09-27T13:29:25;98251.97;;;16.21;55.83
15678;BME280;7939;50.814;6.368;2022-09-27T13:32:21;98259.13;;;16.16;54.70
15678;BME280;7939;50.814;6.368;2022-09-27T13:34:49;98260.78;;;16.17;55.65
15678;BME280;7939;50.814;6.368;2022-09-27T13:37:35;98263.19;;;16.20;56.13
15678;BME280;7939;50.814;6.368;2022-09-27T13:40:28;98255.34;;;16.23;55.97
15678;BME280;7939;50.814;6.368;2022-09-27T13:43:09;98246.69;;;16.24;55.28
15678;BME280;7939;50.814;6.368;2022-09-27T13:45:49;98255.19;;;16.26;55.97
15678;BME280;7939;50.814;6.368;2022-09-27T13:48:24;98252.53;;;16.28;56.10